Flight Track Log - Related Links

Times and Time Zones

All times are in EDT time to prevent confusion due to time zone crossing. See the VIR19 flight status page for this flight to view local times or setup timezone preferences in your user account.

Time Position Orientation Groundspeed Altitude Reporting Facility
EDT Latitude Longitude Course Direction KTS MPH feet Rate Location/Type
Sun 07:23:39 AM 51.4649 -0.4749 271° West 176 203  Level FlightAware ADS-B
Sun 07:23:54 AM 51.4648 -0.4958 270° West 177 204 400 1,579 Climbing FlightAware ADS-B
Sun 07:23:58 AM 51.4648 -0.4997 270° West 177 204 500 2,000 Climbing FlightAware ADS-B
Sun 07:24:09 AM 51.4647 -0.5142 270° West 179 206 900 2,077 Climbing FlightAware ADS-B
Sun 07:24:24 AM 51.4646 -0.5341 270° West 179 206 1,400 2,000 Climbing FlightAware ADS-B
Sun 07:24:30 AM 51.4645 -0.5419 269° West 179 206 1,600 2,000 Climbing FlightAware ADS-B
Sun 07:24:39 AM 51.4644 -0.5541 269° West 189 217 1,900 1,286 Climbing FlightAware ADS-B
Sun 07:24:44 AM 51.4642 -0.5612 269° West 194 223 1,900 429 Level FlightAware ADS-B
Sun 07:24:53 AM 51.4641 -0.5746 269° West 204 235 2,000 1,200 Climbing FlightAware ADS-B
Sun 07:24:54 AM 51.4641 -0.5763 270° West 210 242 2,100 1,714 Climbing FlightAware ADS-B
Sun 07:25:00 AM 51.4641 -0.5856 269° West 214 246 2,200 1,200 Climbing FlightAware ADS-B
Sun 07:25:09 AM 51.4639 -0.6003 270° West 224 258 2,400 1,385 Climbing FlightAware ADS-B
Sun 07:25:13 AM 51.4639 -0.6019 269° West 226 260 2,500 857 Climbing FlightAware ADS-B (EGLF / FAB)
Sun 07:25:16 AM 51.4638 -0.6120 268° West 229 264 2,500 1,500 Level FlightAware ADS-B
Sun 07:25:17 AM 51.4637 -0.6136 266° West 232 267 2,600 2,000 Climbing FlightAware ADS-B (EGLF / FAB)
Sun 07:25:19 AM 51.4635 -0.6172 265° West 233 268 2,600  Level FlightAware ADS-B
Sun 07:25:24 AM 51.4628 -0.6258 261° West 239 275 2,600 600 Level FlightAware ADS-B
Sun 07:25:29 AM 51.4619 -0.6346 258° West 246 283 2,700 1,000 Climbing FlightAware ADS-B
Sun 07:25:30 AM 51.4615 -0.6364 257° West 246 283 2,700 1,800 Level FlightAware ADS-B
Sun 07:25:39 AM 51.4589 -0.6524 254° West 250 288 3,000 1,846 Climbing FlightAware ADS-B (EGLF / FAB)
Sun 07:25:43 AM 51.4574 -0.6613 255° West 251 289 3,100 2,000 Climbing FlightAware ADS-B
Sun 07:25:45 AM 51.4568 -0.6650 255° West 251 289 3,200 2,000 Climbing FlightAware ADS-B
Sun 07:25:49 AM 51.4559 -0.6724 259° West 253 291 3,300 1,333 Climbing FlightAware ADS-B
Sun 07:25:54 AM 51.4552 -0.6799 264° West 256 295 3,400 1,200 Climbing FlightAware ADS-B
Sun 07:25:59 AM 51.4549 -0.6875 267° West 259 298 3,500 600 Climbing FlightAware ADS-B
Sun 07:26:04 AM 51.4547 -0.6951 268° West 261 300 3,500 1,000 Level FlightAware ADS-B
Sun 07:26:05 AM 51.4546 -0.7010 269° West 265 305 3,600 2,727 Climbing FlightAware ADS-B
Sun 07:26:15 AM 51.4546 -0.7206 271° West 265 305 4,000 2,800 Climbing FlightAware ADS-B
Sun 07:26:20 AM 51.4547 -0.7305 271° West 261 300 4,300 4,000 Climbing FlightAware ADS-B
Sun 07:26:21 AM 51.4546 -0.7265 271° West 261 300 4,400 2,667 Climbing FlightAware ADS-B (EGLF / FAB)
Sun 07:26:29 AM 51.4548 -0.7479 272° West 265 305 4,700 2,400 Climbing FlightAware ADS-B
Sun 07:26:36 AM 51.4548 -0.7616 270° West 266 306 5,000 2,667 Climbing FlightAware ADS-B
Sun 07:26:38 AM 51.4548 -0.7676 270° West 266 306 5,100 2,000 Climbing FlightAware ADS-B
Sun 07:26:45 AM 51.4548 -0.7775 270° West 267 307 5,300 2,308 Climbing FlightAware ADS-B
Sun 07:26:51 AM 51.4548 -0.7913 270° West 268 308 5,600 3,000 Climbing FlightAware ADS-B
Sun 07:26:55 AM 51.4548 -0.7993 270° West 267 307 5,800 2,250 Climbing FlightAware ADS-B
Sun 07:26:59 AM 51.4548 -0.8076 270° West 274 315 5,900 1,091 Climbing FlightAware ADS-B
Sun 07:27:06 AM 51.4552 -0.8218 274° West 283 326 6,000 750 Climbing FlightAware ADS-B
Sun 07:27:07 AM 51.4552 -0.8218 270° West 267 307 6,000 1,000 Level FlightAware ADS-B
Sun 07:27:12 AM 51.4561 -0.8345 278° West 289 333 6,100 1,000 Climbing FlightAware ADS-B
Sun 07:27:13 AM 51.4561 -0.8345 278° West 289 333 6,100 2,000 Level FlightAware ADS-B (EGLF / FAB)
Sun 07:27:15 AM 51.4566 -0.8409 280° West 292 336 6,200 2,000 Climbing FlightAware ADS-B
Sun 07:27:16 AM 51.4571 -0.8451 280° West 294 338 6,200 750 Level FlightAware ADS-B
Sun 07:27:23 AM 51.4590 -0.8604 282° West 300 345 6,300 1,500 Climbing FlightAware ADS-B
Sun 07:27:24 AM 51.4594 -0.8625 283° West 302 348 6,400 2,000 Climbing FlightAware ADS-B (LERS / REU)
Sun 07:27:29 AM 51.4609 -0.8710 285° West 303 349 6,500 1,500 Climbing FlightAware ADS-B
Sun 07:27:32 AM 51.4619 -0.8776 286° West 304 350 6,600 3,000 Climbing FlightAware ADS-B
Sun 07:27:39 AM 51.4652 -0.8949 289° West 302 348 7,000 3,500 Climbing FlightAware ADS-B (EGHA)
Sun 07:27:44 AM 51.4673 -0.9033 291° West 303 349 7,300 3,000 Climbing FlightAware ADS-B
Sun 07:27:47 AM 51.4690 -0.9116 290° West 303 349 7,400 1,800 Climbing FlightAware ADS-B
Sun 07:27:54 AM 51.4721 -0.9244 290° West 307 353 7,600 2,000 Climbing FlightAware ADS-B
Sun 07:27:59 AM 51.4746 -0.9352 290° West 311 358 7,800 2,000 Climbing FlightAware ADS-B
Sun 07:28:03 AM 51.4765 -0.9439 290° West 312 359 7,900 2,727 Climbing FlightAware ADS-B
Sun 07:28:10 AM 51.4802 -0.9591 289° West 311 358 8,300 3,000 Climbing FlightAware ADS-B (LERS / REU)
Sun 07:28:13 AM 51.4800 -0.9590 291° West 314 361 8,400 2,250 Climbing FlightAware ADS-B
Sun 07:28:18 AM 51.4841 -0.9765 290° West 314 361 8,600 2,571 Climbing FlightAware ADS-B
Sun 07:28:20 AM 51.4851 -0.9809 289° West 312 359 8,700 2,250 Climbing FlightAware ADS-B (EGHI / SOU)
Sun 07:28:26 AM 51.4880 -0.9939 289° West 312 359 8,900 2,308 Climbing FlightAware ADS-B (EGHH / BOH)
Sun 07:28:33 AM 51.4918 -1.0093 290° West 316 364 9,200 3,000 Climbing FlightAware ADS-B
Sun 07:28:34 AM 51.4921 -1.0115 291° West 317 365 9,300 2,571 Climbing FlightAware ADS-B
Sun 07:28:40 AM 51.4955 -1.0272 289° West 316 364 9,500 2,143 Climbing FlightAware ADS-B (EGHI / SOU)
Sun 07:28:48 AM 51.4996 -1.0448 290° West 320 368 9,800 2,000 Climbing FlightAware ADS-B
Sun 07:28:49 AM 51.4999 -1.0447 291° West 321 369 9,800 2,455 Level FlightAware ADS-B
Sun 07:29:10 AM 51.5109 -1.0941 290° West 325 374 10,700 2,200 Climbing FlightAware ADS-B
Sun 07:29:19 AM 51.5155 -1.1123 291° West 330 380 10,900 1,263 Climbing FlightAware ADS-B
Sun 07:29:29 AM 51.5209 -1.1356 289° West 339 390 11,100 900 Climbing FlightAware ADS-B (EGHH / BOH)
Sun 07:29:39 AM 51.5268 -1.1621 289° West 350 403 11,200 1,000 Climbing FlightAware ADS-B (EGHH / BOH)
Sun 07:29:47 AM 51.5313 -1.1795 291° West 359 413 11,400 1,636 Climbing FlightAware ADS-B
Sun 07:29:50 AM 51.5329 -1.1868 291° West 360 414 11,500 1,091 Climbing FlightAware ADS-B
Sun 07:29:58 AM 51.5373 -1.2070 289° West 363 418 11,600 783 Climbing FlightAware ADS-B (EGLC / LCY)
Sun 07:30:13 AM 51.5467 -1.2489 288° West 377 434 11,800 1,091 Climbing FlightAware ADS-B (EGNR / CEG)
Sun 07:30:20 AM 51.5504 -1.2649 289° West 383 441 12,000 1,846 Climbing FlightAware ADS-B
Sun 07:30:26 AM 51.5537 -1.2810 288° West 383 441 12,200 2,000 Climbing FlightAware ADS-B (LERS / REU)
Sun 07:30:32 AM 51.5569 -1.2972 289° West 386 444 12,400 2,250 Climbing FlightAware ADS-B (EGLF / FAB)
Sun 07:30:42 AM 51.5624 -1.3219 289° West 388 447 12,800 2,250 Climbing FlightAware ADS-B (EGLF / FAB)
Sun 07:30:48 AM 51.5668 -1.3435 288° West 388 447 13,000 2,250 Climbing FlightAware ADS-B
Sun 07:30:50 AM 51.5679 -1.3493 289° West 391 450 13,100 1,000 Climbing FlightAware ADS-B
Sun 07:30:54 AM 51.5676 -1.3465 289° West 390 449 13,100 1,750 Level FlightAware ADS-B
Sun 07:31:14 AM 51.5817 -1.4130 289° West 398 458 13,800 2,000 Climbing FlightAware ADS-B (EGHS)
Sun 07:31:15 AM 51.5829 -1.4157 290° West 398 458 13,800 2,400 Level FlightAware ADS-B
Sun 07:31:24 AM 51.5882 -1.4410 289° West 397 457 14,200 2,471 Climbing FlightAware ADS-B (EGHH / BOH)
Sun 07:31:32 AM 51.5928 -1.4632 289° West 398 458 14,500 2,211 Climbing FlightAware ADS-B (LERS / REU)
Sun 07:31:43 AM 51.5988 -1.4912 288° West 399 459 14,900 2,143 Climbing FlightAware ADS-B (EGLF / FAB)
Sun 07:31:46 AM 51.6015 -1.5055 288° West 402 463 15,000 1,800 Climbing FlightAware ADS-B
Sun 07:32:13 AM 51.6166 -1.5768 288° West 408 470 15,800 1,935 Climbing FlightAware ADS-B (EGHI / SOU)
Sun 07:32:17 AM 51.6199 -1.5941 288° West 410 472 16,000 2,118 Climbing FlightAware ADS-B
Sun 07:32:30 AM 51.6256 -1.6225 289° West 413 475 16,400 1,742 Climbing FlightAware ADS-B (EGLF / FAB)
Sun 07:32:48 AM 51.6383 -1.6808 289° West 415 478 16,900 1,946 Climbing FlightAware ADS-B
Sun 07:33:07 AM 51.6483 -1.7277 289° West 418 481 17,600 2,063 Climbing FlightAware ADS-B
Sun 07:33:20 AM 51.6583 -1.7749 289° West 421 484 18,000 1,714 Climbing FlightAware ADS-B
Sun 07:33:21 AM 51.6565 -1.7691 289° West 422 486 18,000 3,000 Level FlightAware ADS-B (EGLF / FAB)
Sun 07:33:26 AM 51.6616 -1.7929 289° West 424 488 18,300 1,875 Climbing FlightAware ADS-B (EGLF / FAB)
Sun 07:33:37 AM 51.6688 -1.8257 288° West 422 486 18,500 1,304 Climbing FlightAware ADS-B (LERS / REU)
Sun 07:33:49 AM 51.6765 -1.8615 288° West 423 487 18,800 1,714 Climbing FlightAware ADS-B (LERS / REU)
Sun 07:33:51 AM 51.6778 -1.8677 289° West 425 489 18,900 2,571 Climbing FlightAware ADS-B
Sun 07:33:56 AM 51.6806 -1.8825 288° West 425 489 19,100 2,400 Climbing FlightAware ADS-B (LERS / REU)
Sun 07:34:01 AM 51.6835 -1.8948 289° West 428 493 19,300 1,920 Climbing FlightAware ADS-B (EGLF / FAB)
Sun 07:34:21 AM 51.6973 -1.9610 289° West 428 493 19,900 1,765 Climbing FlightAware ADS-B
Sun 07:34:52 AM 51.7167 -2.0519 289° West 430 495 20,800 1,742 Climbing FlightAware ADS-B
Sun 07:35:23 AM 51.7366 -2.1500 289° West 437 503 21,700 1,731 Climbing FlightAware ADS-B
Sun 07:35:44 AM 51.7497 -2.2117 287° West 438 504 22,300 1,742 Climbing FlightAware ADS-B (EGHH / BOH)
Sun 07:35:54 AM 51.7565 -2.2461 289° West 442 509 22,600 1,875 Climbing FlightAware ADS-B
Sun 07:36:00 AM 51.7572 -2.2492 289° West 441 507 22,800 1,556 Climbing FlightAware ADS-B
Sun 07:36:21 AM 51.7739 -2.3304 288° West 445 512 23,300 1,500 Climbing FlightAware ADS-B (EGDX / DGX)
Sun 07:36:24 AM 51.7761 -2.3399 288° West 446 513 23,400 2,250 Climbing FlightAware ADS-B
Sun 07:36:29 AM 51.7784 -2.3495 288° West 446 513 23,600 1,680 Climbing FlightAware ADS-B (EGLF / FAB)
Sun 07:36:49 AM 51.7923 -2.4189 288° West 449 517 24,100 1,565 Climbing FlightAware ADS-B
Sun 07:36:52 AM 51.7942 -2.4286 288° West 450 518 24,200 1,333 Climbing FlightAware ADS-B (EGCW)
Sun 07:36:58 AM 51.7977 -2.4447 287° West 448 516 24,300 1,636 Climbing FlightAware ADS-B (EGHH / BOH)
Sun 07:37:03 AM 51.8007 -2.4607 288° West 451 519 24,500 2,000 Climbing FlightAware ADS-B (EGLF / FAB)
Sun 07:37:07 AM 51.8038 -2.4764 287° West 449 517 24,600 1,500 Climbing FlightAware ADS-B (EGHH / BOH)
Sun 07:37:11 AM 51.8062 -2.4861 287° West 450 518 24,700 1,714 Climbing FlightAware ADS-B (LERS / REU)
Sun 07:37:21 AM 51.8114 -2.5153 286° West 453 521 25,000 1,846 Climbing FlightAware ADS-B (EGDX / DGX)
Sun 07:37:24 AM 51.8144 -2.5314 286° West 453 521 25,100 1,579 Climbing FlightAware ADS-B (EGCW)
Sun 07:37:40 AM 51.8227 -2.5806 288° West 451 519 25,500 1,579 Climbing FlightAware ADS-B
Sun 07:37:43 AM 51.8244 -2.5904 284° West 457 526 25,600 2,182 Climbing FlightAware ADS-B (EGCW)
Sun 07:37:51 AM 51.8269 -2.6103 283° West 459 528 25,900 1,667 Climbing FlightAware ADS-B
Sun 07:38:01 AM 51.8312 -2.6407 283° West 459 528 26,100 2,000 Climbing FlightAware ADS-B (EGLF / FAB)
Sun 07:38:24 AM 51.8430 -2.7268 283° West 454 522 27,000 2,364 Climbing FlightAware ADS-B (EGDX / DGX)
Sun 07:38:34 AM 51.8481 -2.7594 287° West 451 519 27,400 2,211 Climbing FlightAware ADS-B
Sun 07:38:43 AM 51.8548 -2.7915 289° West 449 517 27,700 2,250 Climbing FlightAware ADS-B
Sun 07:38:50 AM 51.8589 -2.8101 290° West 447 514 28,000 2,250 Climbing FlightAware ADS-B (EGHS)
Sun 07:38:59 AM 51.8656 -2.8386 289° West 450 518 28,300 2,222 Climbing FlightAware ADS-B (EGDX / DGX)
Sun 07:39:17 AM 51.8772 -2.8916 289° West 442 509 29,000 1,886 Climbing FlightAware ADS-B (EGLF / FAB)
Sun 07:39:34 AM 51.8896 -2.9476 289° West 442 509 29,400 1,636 Climbing FlightAware ADS-B (LERS / REU)
Sun 07:39:39 AM 51.8937 -2.9662 289° West 442 509 29,600 4,000 Climbing FlightAware ADS-B (EGHH / BOH)
Sun 07:39:43 AM 51.8941 -2.9662 291° West 440 506 30,000 686 Climbing FlightAware ADS-B (EGDM)
Sun 07:40:14 AM 51.9194 -3.0695 292° West 438 504 30,000  Level FlightAware ADS-B
Sun 07:40:20 AM 51.9246 -3.0910 292° West 437 503 30,000  Level FlightAware ADS-B
Sun 07:40:35 AM 51.9351 -3.1336 290° West 433 498 30,000  Level FlightAware ADS-B (EGHH / BOH)
Sun 07:40:48 AM 51.9444 -3.1729 290° West 432 497 30,000  Level FlightAware ADS-B (EGHH / BOH)
Sun 07:40:57 AM 51.9511 -3.2033 290° West 432 497 30,000  Level FlightAware ADS-B
Sun 07:41:07 AM 51.9575 -3.2306 290° West 432 497 30,000  Level FlightAware ADS-B (EGHH / BOH)
Sun 07:41:22 AM 51.9685 -3.2765 289° West 431 496 30,000  Level FlightAware ADS-B (EGNR / CEG)
Sun 07:41:45 AM 51.9849 -3.3495 289° West 431 496 30,000  Level FlightAware ADS-B
Sun 07:42:16 AM 52.0042 -3.4348 290° West 432 497 30,000  Level FlightAware ADS-B
Sun 07:42:49 AM 52.0293 -3.5439 290° West 432 497 30,000  Level FlightAware ADS-B
Sun 07:43:08 AM 52.0418 -3.5985 292° West 438 504 30,000  Level FlightAware ADS-B (EGHS)
Sun 07:43:39 AM 52.0637 -3.6958 290° West 431 496 30,000  Level FlightAware ADS-B
Sun 07:44:09 AM 52.0826 -3.7777 290° West 432 497 30,000  Level FlightAware ADS-B
Sun 07:44:39 AM 52.1038 -3.8717 290° West 433 498 30,000  Level FlightAware ADS-B
Sun 07:45:09 AM 52.1253 -3.9665 290° West 433 498 30,000  Level FlightAware ADS-B
Sun 07:45:42 AM 52.1482 -4.0673 290° West 433 498 30,000  Level FlightAware ADS-B
Sun 07:46:13 AM 52.1701 -4.1656 290° West 434 499 30,000  Level FlightAware ADS-B
Sun 07:46:44 AM 52.1889 -4.2513 290° West 435 501 30,000  Level FlightAware ADS-B
Sun 07:47:14 AM 52.2117 -4.3529 290° West 436 502 30,000  Level FlightAware ADS-B
Sun 07:47:46 AM 52.2321 -4.4456 290° West 437 503 30,000  Level FlightAware ADS-B
Sun 07:48:19 AM 52.2555 -4.5510 290° West 437 503 30,000  Level FlightAware ADS-B (LERS / REU)
Sun 07:48:52 AM 52.2764 -4.6468 290° West 436 502 30,000  Level FlightAware ADS-B (EGCW)
Sun 07:49:11 AM 52.2835 -4.6779 289° West 436 502 30,000  Level FlightAware ADS-B
Sun 07:49:43 AM 52.3108 -4.8050 289° West 437 503 30,000  Level FlightAware ADS-B (EGCW)
Sun 07:50:13 AM 52.3329 -4.9076 289° West 437 503 30,000  Level FlightAware ADS-B (EGCW)
Sun 07:50:43 AM 52.3528 -5.0011 289° West 436 502 30,000  Level FlightAware ADS-B (EGCW)
Sun 07:51:15 AM 52.3743 -5.1005 289° West 436 502 30,000  Level FlightAware ADS-B
Sun 07:51:48 AM 52.3948 -5.1972 289° West 437 503 30,000  Level FlightAware ADS-B
Sun 07:52:28 AM 52.4218 -5.3252 289° West 437 503 30,000  Level FlightAware ADS-B
Sun 07:53:01 AM 52.4440 -5.4313 289° West 436 502 30,000 364 Level FlightAware ADS-B
Sun 07:53:34 AM 52.4659 -5.5367 289° West 440 506 30,400 923 Climbing FlightAware UK
Sun 07:53:40 AM 52.4698 -5.5537 289° West 439 505 30,600 766 Climbing FlightAware ADS-B
Sun 07:54:21 AM 52.4961 -5.6796 289° West 441 507 31,000 286 Climbing FlightAware ADS-B
Sun 07:55:04 AM 52.5249 -5.8202 289° West 438 504 31,000  Level FlightAware UK
Sun 07:55:10 AM 52.5281 -5.8340 289° West 438 504 31,000  Level FlightAware ADS-B
Sun 07:55:40 AM 52.5478 -5.9312 289° West 435 501 31,000  Level FlightAware ADS-B
Sun 07:55:51 AM 52.5539 -5.9595 289° West 435 501 31,000  Level FlightAware ADS-B
Sun 07:56:23 AM 52.5750 -6.0623 288° West 433 498 31,000  Level FlightAware ADS-B
Sun 07:57:03 AM 52.6005 -6.1900 288° West 432 497 31,000  Level FlightAware ADS-B
Sun 07:57:35 AM 52.6202 -6.2866 288° West 432 497 31,000  Level FlightAware ADS-B
Sun 07:58:09 AM 52.6401 -6.3862 288° West 431 496 31,000  Level FlightAware ADS-B
Sun 07:58:40 AM 52.6604 -6.4889 288° West 431 496 31,000  Level FlightAware ADS-B
Sun 07:59:10 AM 52.6792 -6.5823 288° West 432 497 31,000  Level FlightAware ADS-B
Sun 07:59:45 AM 52.7013 -6.6952 288° West 433 498 31,000  Level FlightAware ADS-B
Sun 08:00:16 AM 52.7198 -6.7892 288° West 434 499 31,000  Level FlightAware ADS-B
Sun 08:00:56 AM 52.7443 -6.9148 288° West 434 499 31,000  Level FlightAware ADS-B
Sun 08:01:30 AM 52.7658 -7.0252 288° West 435 501 31,000  Level FlightAware ADS-B
Sun 08:02:00 AM 52.7838 -7.1171 288° West 435 501 31,000  Level FlightAware ADS-B
Sun 08:02:31 AM 52.8010 -7.2085 288° West 435 501 31,000  Level FlightAware ADS-B
Sun 08:03:05 AM 52.8228 -7.3227 288° West 436 502 31,000  Level FlightAware ADS-B
Sun 08:03:39 AM 52.8434 -7.4308 287° West 436 502 31,000  Level FlightAware ADS-B
Sun 08:04:17 AM 52.8668 -7.5546 287° West 436 502 31,000  Level FlightAware ADS-B
Sun 08:04:47 AM 52.8834 -7.6464 287° West 435 501 31,000  Level FlightAware ADS-B (KABQ)
Sun 08:05:19 AM 52.9024 -7.7450 287° West 435 501 31,000  Level FlightAware ADS-B
Sun 08:05:49 AM 52.9211 -7.8438 287° West 436 502 31,000  Level FlightAware ADS-B (KABQ)
Sun 08:06:28 AM 52.9441 -7.9712 287° West 436 502 31,000  Level FlightAware ADS-B (KABQ)
Sun 08:06:37 AM 52.9493 -7.9970 286° West 433 498 31,000  Level FlightAware ADS-B
Sun 08:06:59 AM 52.9621 -8.0671 286° West 433 498 31,000  Level FlightAware ADS-B
Sun 08:07:13 AM 52.9701 -8.1118 286° West 433 498 31,000  Level FlightAware ADS-B
Sun 08:07:44 AM 52.9885 -8.2139 287° West 435 501 31,000  Level FlightAware ADS-B
Sun 08:08:04 AM 53.0001 -8.2776 286° West 434 499 31,000  Level FlightAware ADS-B
Sun 08:08:24 AM 53.0113 -8.3384 286° West 434 499 31,000  Level FlightAware ADS-B
Sun 08:08:58 AM 53.0314 -8.4507 287° West 436 502 31,000  Level FlightAware ADS-B (KABQ)
Sun 08:09:29 AM 53.0485 -8.5467 287° West 435 501 31,000  Level FlightAware ADS-B (KABQ)
Sun 08:09:34 AM 53.0513 -8.5627 287° West 435 501 31,000  Level FlightAware ADS-B
Sun 08:10:08 AM 53.0715 -8.6746 286° West 435 501 31,000  Level FlightAware ADS-B (KABQ)
Sun 08:10:17 AM 53.0763 -8.7035 285° West 432 497 31,000  Level FlightAware ADS-B
Sun 08:10:39 AM 53.0885 -8.7707 285° West 432 497 31,000  Level FlightAware ADS-B
Sun 08:11:00 AM 53.1004 -8.8378 285° West 432 497 31,000  Level FlightAware ADS-B
Sun 08:11:39 AM 53.1217 -8.9598 286° West 434 499 31,000  Level FlightAware ADS-B (KABQ)
Sun 08:11:48 AM 53.1274 -8.9948 285° West 432 497 31,000  Level FlightAware ADS-B
Sun 08:12:19 AM 53.1447 -9.0939 286° West 433 498 31,000  Level FlightAware ADS-B (KABQ)
Sun 08:12:49 AM 53.1606 -9.1866 286° West 431 496 31,000  Level FlightAware ADS-B (KABQ)
Sun 08:13:19 AM 53.1774 -9.2856 286° West 431 496 31,000  Level FlightAware ADS-B (KABQ)
Sun 08:13:49 AM 53.1935 -9.3781 286° West 431 496 31,000  Level FlightAware ADS-B (KABQ)
Sun 08:14:29 AM 53.2150 -9.5058 286° West 431 496 31,000  Level FlightAware ADS-B (KABQ)
Sun 08:15:08 AM 53.2366 -9.6339 286° West 432 497 31,000  Level FlightAware ADS-B (KABQ)
Sun 08:15:53 AM 53.2607 -9.7781 286° West 432 497 31,000  Level FlightAware ADS-B (KABQ)
Sun 08:16:23 AM 53.2760 -9.8712 285° West 431 496 31,000  Level FlightAware ADS-B (KABQ)
Sun 08:16:53 AM 53.2924 -9.9709 285° West 432 497 31,000  Level FlightAware ADS-B (KABQ)
Sun 08:17:32 AM 53.3125 -10.0931 285° West 432 497 31,000  Level FlightAware ADS-B (KABQ)
Sun 08:18:03 AM 53.3287 -10.1928 285° West 432 497 31,000  Level FlightAware ADS-B (KABQ)
Sun 08:18:43 AM 53.3498 -10.3217 285° West 433 498 31,000  Level FlightAware ADS-B (KABQ)
Sun 08:19:22 AM 53.3702 -10.4508 285° West 433 498 31,000  Level FlightAware ADS-B (KABQ)
Sun 08:20:02 AM 53.3906 -10.5770 285° West 434 499 31,000  Level FlightAware ADS-B (KABQ)
Sun 08:20:32 AM 53.4059 -10.6738 285° West 432 497 31,000  Level FlightAware ADS-B (KABQ)
Sun 08:21:02 AM 53.4212 -10.7711 285° West 433 498 31,000  Level FlightAware ADS-B (KABQ)
Sun 09:07:47 AM 55.0000 -20.0000 294° West 464 534 31,000  Level ETMS Enhanced Traffic Management System
Sun 09:08:00 AM 56.9609 -19.4429 302° West  Level Estimated
Sun 09:09:00 AM 57.0299 -19.6467 302° West  Level Estimated
Sun 09:10:00 AM 57.0985 -19.8512 302° West  Level Estimated
Sun 09:11:00 AM 57.1669 -20.0565 302° West  Level Estimated
Sun 09:12:00 AM 57.2348 -20.2625 301° West  Level Estimated
Sun 09:13:00 AM 55.3057 -21.2440 293° West 464 534 31,000  Level FlightAware Transoceanic
Sun 09:14:00 AM 55.3554 -21.4532 293° West 464 534 31,000  Level FlightAware Transoceanic
Sun 09:15:00 AM 55.4048 -21.6629 292° West 464 534 31,000  Level FlightAware Transoceanic
Sun 09:16:00 AM 55.4538 -21.8731 292° West 464 534 31,000  Level FlightAware Transoceanic
Sun 09:17:00 AM 55.5024 -22.0839 292° West 464 534 31,000  Level FlightAware Transoceanic
Sun 09:18:00 AM 55.5507 -22.2952 292° West 464 534 31,000  Level FlightAware Transoceanic
Sun 09:19:00 AM 55.5986 -22.5070 292° West 464 534 31,000  Level FlightAware Transoceanic
Sun 09:20:00 AM 55.6461 -22.7193 292° West 464 534 31,000  Level FlightAware Transoceanic
Sun 09:21:00 AM 55.6933 -22.9321 291° West 464 534 31,000  Level FlightAware Transoceanic
Sun 09:22:00 AM 55.7401 -23.1454 291° West 464 534 31,000  Level FlightAware Transoceanic
Sun 09:23:00 AM 55.7866 -23.3593 291° West 464 534 31,000  Level FlightAware Transoceanic
Sun 09:24:00 AM 55.8326 -23.5736 291° West 464 534 31,000  Level FlightAware Transoceanic
Sun 09:25:00 AM 55.8783 -23.7885 291° West 464 534 31,000  Level FlightAware Transoceanic
Sun 09:26:00 AM 55.9236 -24.0038 290° West 464 534 31,000  Level FlightAware Transoceanic
Sun 09:27:00 AM 55.9686 -24.2197 290° West 464 534 31,000  Level FlightAware Transoceanic
Sun 09:28:00 AM 56.0131 -24.4361 290° West 464 534 31,000  Level FlightAware Transoceanic
Sun 09:29:00 AM 56.0573 -24.6529 290° West 464 534 31,000  Level FlightAware Transoceanic
Sun 09:30:00 AM 56.1011 -24.8703 290° West 464 534 31,000  Level FlightAware Transoceanic
Sun 09:31:00 AM 56.1446 -25.0881 290° West 464 534 31,000  Level FlightAware Transoceanic
Sun 09:32:00 AM 56.1876 -25.3065 289° West 464 534 31,000  Level FlightAware Transoceanic
Sun 09:33:00 AM 56.2302 -25.5253 289° West 464 534 31,000  Level FlightAware Transoceanic
Sun 09:34:00 AM 56.2725 -25.7446 289° West 464 534 31,000  Level FlightAware Transoceanic
Sun 09:35:00 AM 56.3144 -25.9644 289° West 464 534 31,000  Level FlightAware Transoceanic
Sun 09:36:00 AM 56.3559 -26.1847 289° West 464 534 31,000  Level FlightAware Transoceanic
Sun 09:37:00 AM 56.3969 -26.4054 288° West 464 534 31,000  Level FlightAware Transoceanic
Sun 09:38:00 AM 56.4376 -26.6267 288° West 464 534 31,000  Level FlightAware Transoceanic
Sun 09:39:00 AM 56.4779 -26.8484 288° West 464 534 31,000  Level FlightAware Transoceanic
Sun 09:40:00 AM 56.5178 -27.0705 288° West 464 534 31,000  Level FlightAware Transoceanic
Sun 09:41:00 AM 56.5574 -27.2932 288° West 464 534 31,000  Level FlightAware Transoceanic
Sun 09:42:00 AM 56.5965 -27.5163 288° West 464 534 31,000  Level FlightAware Transoceanic
Sun 09:43:00 AM 56.6352 -27.7398 287° West 464 534 31,000  Level FlightAware Transoceanic
Sun 09:44:00 AM 56.6735 -27.9639 287° West 464 534 31,000  Level FlightAware Transoceanic
Sun 09:45:00 AM 56.7114 -28.1883 287° West 464 534 31,000  Level FlightAware Transoceanic
Sun 09:46:00 AM 56.7489 -28.4132 287° West 464 534 31,000  Level FlightAware Transoceanic
Sun 09:47:00 AM 56.7860 -28.6386 287° West 464 534 31,000  Level FlightAware Transoceanic
Sun 09:48:00 AM 56.8227 -28.8644 286° West 464 534 31,000  Level FlightAware Transoceanic
Sun 09:49:00 AM 56.8590 -29.0907 286° West 464 534 31,000  Level FlightAware Transoceanic
Sun 09:50:00 AM 56.8949 -29.3174 286° West 464 534 31,000  Level FlightAware Transoceanic
Sun 09:51:00 AM 56.9303 -29.5445 286° West 464 534 31,000  Level FlightAware Transoceanic
Sun 09:52:00 AM 56.9654 -29.7720 286° West 464 534 31,000  Level FlightAware Transoceanic
Sun 09:53:00 AM 57.0005 -30.0030 286° West  Level FlightAware Approximate
Sun 09:54:00 AM 57.0009 -30.0061 284° West  Level FlightAware Approximate
Sun 09:55:00 AM 57.0329 -30.2388 284° West  Level FlightAware Approximate
Sun 09:56:00 AM 57.0645 -30.4719 284° West  Level FlightAware Approximate
Sun 09:57:00 AM 57.0956 -30.7055 284° West  Level FlightAware Approximate
Sun 09:58:00 AM 57.1264 -30.9394 284° West  Level FlightAware Approximate
Sun 09:59:00 AM 57.1566 -31.1737 284° West  Level FlightAware Approximate
Sun 10:00:00 AM 57.1866 -31.4083 284° West  Level FlightAware Approximate
Sun 10:01:00 AM 57.2172 -31.6428 284° West  Level FlightAware Approximate
Sun 10:02:00 AM 57.2473 -31.8777 283° West  Level FlightAware Approximate
Sun 10:03:00 AM 57.2770 -32.1131 283° West  Level FlightAware Approximate
Sun 10:04:00 AM 57.3063 -32.3488 283° West  Level FlightAware Approximate
Sun 10:05:00 AM 57.3351 -32.5848 283° West  Level FlightAware Approximate
Sun 10:06:00 AM 57.3634 -32.8212 283° West  Level FlightAware Approximate
Sun 10:07:00 AM 57.3914 -33.0580 282° West  Level FlightAware Approximate
Sun 10:08:00 AM 57.4189 -33.2952 282° West  Level FlightAware Approximate
Sun 10:09:00 AM 57.4459 -33.5327 282° West  Level FlightAware Approximate
Sun 10:10:00 AM 57.4725 -33.7705 282° West  Level FlightAware Approximate
Sun 10:11:00 AM 57.4986 -34.0088 282° West  Level FlightAware Approximate
Sun 10:12:00 AM 57.5243 -34.2473 281° West  Level FlightAware Approximate
Sun 10:13:00 AM 57.5496 -34.4862 281° West  Level FlightAware Approximate
Sun 10:14:00 AM 57.5743 -34.7254 281° West  Level FlightAware Approximate
Sun 10:15:00 AM 57.5987 -34.9649 281° West  Level FlightAware Approximate
Sun 10:16:00 AM 57.6226 -35.2047 281° West  Level FlightAware Approximate
Sun 10:17:00 AM 57.6460 -35.4449 280° West  Level FlightAware Approximate
Sun 10:18:00 AM 57.6690 -35.6853 280° West  Level FlightAware Approximate
Sun 10:19:00 AM 57.6915 -35.9261 280° West  Level FlightAware Approximate
Sun 10:20:00 AM 57.7135 -36.1671 280° West  Level FlightAware Approximate
Sun 10:21:00 AM 57.7351 -36.4085 280° West  Level FlightAware Approximate
Sun 10:22:00 AM 57.7563 -36.6501 279° West  Level FlightAware Approximate
Sun 10:23:00 AM 57.7770 -36.8920 279° West  Level FlightAware Approximate
Sun 10:24:00 AM 57.7972 -37.1342 279° West  Level FlightAware Approximate
Sun 10:25:00 AM 57.8169 -37.3767 279° West  Level FlightAware Approximate
Sun 10:26:00 AM 57.8362 -37.6194 279° West  Level FlightAware Approximate
Sun 10:27:00 AM 57.8551 -37.8624 278° West  Level FlightAware Approximate
Sun 10:28:00 AM 57.8734 -38.1056 278° West  Level FlightAware Approximate
Sun 10:29:00 AM 57.8913 -38.3491 278° West  Level FlightAware Approximate
Sun 10:30:00 AM 57.9087 -38.5928 278° West  Level FlightAware Approximate
Sun 10:31:00 AM 57.9257 -38.8367 278° West  Level FlightAware Approximate
Sun 10:32:00 AM 57.9422 -39.0809 277° West  Level FlightAware Approximate
Sun 10:33:00 AM 57.9582 -39.3253 277° West  Level FlightAware Approximate
Sun 10:34:00 AM 57.9738 -39.5699 277° West  Level FlightAware Approximate
Sun 10:35:00 AM 57.9889 -39.8147 277° West  Level FlightAware Approximate
Sun 10:36:00 AM 58.0080 -40.0582 285° West  Level FlightAware Approximate
Sun 10:37:00 AM 58.0406 -40.2972 285° West  Level FlightAware Approximate
Sun 10:38:00 AM 58.0727 -40.5366 284° West  Level FlightAware Approximate
Sun 10:39:00 AM 58.1044 -40.7764 284° West  Level FlightAware Approximate
Sun 10:40:00 AM 58.1357 -41.0166 284° West  Level FlightAware Approximate
Sun 10:41:00 AM 58.1665 -41.2573 284° West  Level FlightAware Approximate
Sun 10:42:00 AM 58.1968 -41.4984 284° West  Level FlightAware Approximate
Sun 10:43:00 AM 58.2267 -41.7399 283° West  Level FlightAware Approximate
Sun 10:44:00 AM 58.2561 -41.9818 283° West  Level FlightAware Approximate
Sun 10:45:00 AM 58.2851 -42.2241 283° West  Level FlightAware Approximate
Sun 10:46:00 AM 58.3136 -42.4668 283° West  Level FlightAware Approximate
Sun 10:47:00 AM 58.3416 -42.7098 282° West  Level FlightAware Approximate
Sun 10:48:00 AM 58.3708 -42.9526 283° West  Level FlightAware Approximate
Sun 10:49:00 AM 58.4003 -43.1955 283° West  Level FlightAware Approximate
Sun 10:50:00 AM 58.4292 -43.4388 283° West  Level FlightAware Approximate
Sun 10:51:00 AM 58.4578 -43.6824 283° West  Level FlightAware Approximate
Sun 10:52:00 AM 58.4858 -43.9265 283° West  Level FlightAware Approximate
Sun 10:53:00 AM 58.5134 -44.1710 282° West  Level FlightAware Approximate
Sun 10:54:00 AM 58.5396 -44.4162 282° West  Level FlightAware Approximate
Sun 10:55:00 AM 58.5653 -44.6618 281° West  Level FlightAware Approximate
Sun 10:56:00 AM 58.5904 -44.9077 281° West  Level FlightAware Approximate
Sun 10:57:00 AM 58.6151 -45.1540 281° West  Level FlightAware Approximate
Sun 10:58:00 AM 58.6394 -45.4007 281° West  Level FlightAware Approximate
Sun 10:59:00 AM 58.6631 -45.6477 281° West  Level FlightAware Approximate
Sun 11:00:00 AM 58.6864 -45.8950 280° West  Level FlightAware Approximate
Sun 11:01:00 AM 58.7092 -46.1427 280° West  Level FlightAware Approximate
Sun 11:02:00 AM 58.7315 -46.3907 280° West  Level FlightAware Approximate
Sun 11:03:00 AM 58.7533 -46.6390 280° West  Level FlightAware Approximate
Sun 11:04:00 AM 58.7747 -46.8876 280° West  Level FlightAware Approximate
Sun 11:05:00 AM 58.7956 -47.1365 279° West  Level FlightAware Approximate
Sun 11:06:00 AM 58.8160 -47.3857 279° West  Level FlightAware Approximate
Sun 11:07:00 AM 58.8359 -47.6352 279° West  Level FlightAware Approximate
Sun 11:08:00 AM 58.8554 -47.8849 279° West  Level FlightAware Approximate
Sun 11:09:00 AM 58.8743 -48.1350 278° West  Level FlightAware Approximate
Sun 11:10:00 AM 58.8928 -48.3853 278° West  Level FlightAware Approximate
Sun 11:11:00 AM 58.9108 -48.6359 278° West  Level FlightAware Approximate
Sun 11:12:00 AM 58.9283 -48.8868 278° West  Level FlightAware Approximate
Sun 11:13:00 AM 58.9454 -49.1379 278° West  Level FlightAware Approximate
Sun 11:14:00 AM 58.9619 -49.3892 277° West  Level FlightAware Approximate
Sun 11:15:00 AM 58.9780 -49.6408 277° West  Level FlightAware Approximate
Sun 11:16:00 AM 58.9935 -49.8926 277° West  Level FlightAware Approximate
Sun 11:17:00 AM 59.0053 -50.1452 274° West  Level FlightAware Approximate
Sun 11:18:00 AM 59.0140 -50.3984 274° West  Level FlightAware Approximate
Sun 11:19:00 AM 59.0223 -50.6518 274° West  Level FlightAware Approximate
Sun 11:20:00 AM 59.0301 -50.9053 274° West  Level FlightAware Approximate
Sun 11:21:00 AM 59.0374 -51.1588 273° West  Level FlightAware Approximate
Sun 11:22:00 AM 59.0442 -51.4125 273° West  Level FlightAware Approximate
Sun 11:23:00 AM 59.0505 -51.6663 273° West  Level FlightAware Approximate
Sun 11:24:00 AM 59.0563 -51.9201 273° West  Level FlightAware Approximate
Sun 11:25:00 AM 59.0616 -52.1741 272° West  Level FlightAware Approximate
Sun 11:26:00 AM 59.0664 -52.4281 272° West  Level FlightAware Approximate
Sun 11:27:00 AM 59.0707 -52.6822 272° West  Level FlightAware Approximate
Sun 11:28:00 AM 59.0746 -52.9363 272° West  Level FlightAware Approximate
Sun 11:29:00 AM 59.0779 -53.1905 272° West  Level FlightAware Approximate
Sun 11:30:00 AM 59.0807 -53.4448 271° West  Level FlightAware Approximate
Sun 11:31:00 AM 59.0830 -53.6991 271° West  Level FlightAware Approximate
Sun 11:32:00 AM 59.0849 -53.9534 271° West  Level FlightAware Approximate
Sun 11:33:00 AM 59.0862 -54.2077 271° West  Level FlightAware Approximate
Sun 11:34:00 AM 59.0870 -54.4621 270° West  Level FlightAware Approximate
Sun 11:35:00 AM 59.0873 -54.7164 270° West  Level FlightAware Approximate
Sun 11:36:00 AM 59.0872 -54.9708 270° West  Level FlightAware Approximate
Sun 11:37:00 AM 59.0865 -55.2252 270° West  Level FlightAware Approximate
Sun 11:38:00 AM 59.0854 -55.4795 270° West  Level FlightAware Approximate
Sun 11:39:00 AM 59.0837 -55.7338 269° West  Level FlightAware Approximate
Sun 11:40:00 AM 59.0825 -55.9882 270° West  Level FlightAware Approximate
Sun 11:41:00 AM 59.0809 -56.2425 269° West  Level FlightAware Approximate
Sun 11:42:00 AM 59.0789 -56.4968 269° West  Level FlightAware Approximate
Sun 11:43:00 AM 59.0763 -56.7510 269° West  Level FlightAware Approximate
Sun 11:44:00 AM 59.0733 -57.0052 269° West  Level FlightAware Approximate
Sun 11:45:00 AM 59.0698 -57.2594 269° West  Level FlightAware Approximate
Sun 11:45:35 AM 59.0833 -55.6000 267° West 450 518 31,000  Level Gander Center
Sun 11:46:00 AM 59.0658 -57.5120 268° West  Level FlightAware Approximate
Sun 11:46:35 AM 59.0833 -55.8333 270° West 450 518 31,600  Level Gander Center
Sun 11:47:00 AM 59.0613 -57.7645 268° West  Level FlightAware Approximate
Sun 11:47:35 AM 59.0833 -56.1000 270° West 450 518 32,900  Level Gander Center
Sun 11:48:00 AM 59.0563 -58.0169 268° West  Level FlightAware Approximate
Sun 11:48:35 AM 59.0833 -56.3167 270° West 460 529 33,900  Level Gander Center
Sun 11:49:00 AM 59.0508 -58.2693 268° West  Level FlightAware Approximate
Sun 11:49:35 AM 59.0500 -56.5833 256° West 460 529 34,000  Level Gander Center
Sun 11:50:00 AM 59.0449 -58.5216 267° West  Level FlightAware Approximate
Sun 11:50:35 AM 59.0500 -56.8500 270° West 460 529 34,000  Level Gander Center
Sun 11:51:35 AM 59.0333 -57.0667 262° West 460 529 34,000  Level Gander Center
Sun 11:52:35 AM 59.0333 -57.3333 270° West 460 529 34,000  Level Gander Center
Sun 11:53:35 AM 59.0000 -57.6000 256° West 460 529 34,000  Level Gander Center
Sun 11:54:35 AM 59.0000 -57.8167 270° West 460 529 34,000  Level Gander Center
Sun 11:55:35 AM 58.9833 -58.0833 263° West 460 529 34,000  Level Gander Center
Sun 11:56:35 AM 58.9667 -58.3500 263° West 470 541 34,000  Level Gander Center
Sun 11:57:35 AM 58.9500 -58.5667 262° West 460 529 34,000  Level Gander Center
Sun 11:58:35 AM 58.9333 -58.8333 263° West 470 541 34,000  Level Gander Center
Sun 11:59:35 AM 58.9167 -59.0833 263° West 470 541 34,000  Level Gander Center
Sun 12:00:35 PM 58.8833 -59.3167 255° West 470 541 34,000  Level Gander Center
Sun 12:01:35 PM 58.8833 -59.5667 270° West 470 541 34,000  Level Gander Center
Sun 12:02:35 PM 58.8667 -59.8333 263° West 470 541 34,000  Level Gander Center
Sun 12:03:33 PM 58.8500 -60.0333 261° West 470 541 34,000  Level Montreal Center
Sun 12:04:33 PM 58.8167 -60.2833 256° West 470 541 34,000  Level Montreal Center
Sun 12:05:33 PM 58.8000 -60.5167 262° West 470 541 34,000  Level Montreal Center
Sun 12:06:33 PM 58.7833 -60.7667 263° West 470 541 34,000  Level Montreal Center
Sun 12:07:33 PM 58.7500 -61.0333 257° West 470 541 34,000  Level Montreal Center
Sun 12:08:35 PM 58.7333 -61.3500 264° West 470 541 34,000  Level Gander Center
Sun 12:09:35 PM 58.7167 -61.5667 262° West 470 541 34,000  Level Gander Center
Sun 12:10:35 PM 58.6833 -61.8667 258° West 470 541 34,000  Level Gander Center
Sun 12:11:33 PM 58.6500 -62.0000 244° Southwest 470 541 34,000  Level Montreal Center
Sun 12:12:35 PM 58.6500 -62.3333 270° West 470 541 34,000  Level Gander Center
Sun 12:13:35 PM 58.6333 -62.5667 262° West 470 541 34,000  Level Gander Center
Sun 12:14:35 PM 58.6000 -62.8167 256° West 470 541 34,000  Level Gander Center
Sun 12:15:35 PM 58.5667 -63.0667 256° West 470 541 34,000  Level Gander Center
Sun 12:16:35 PM 58.5333 -63.3000 255° West 470 541 34,000  Level Gander Center
Sun 12:17:35 PM 58.5167 -63.5500 263° West 470 541 34,000  Level Gander Center
Sun 12:18:35 PM 58.5000 -63.8000 263° West 470 541 34,000  Level Gander Center
Sun 12:19:35 PM 58.4667 -64.0167 254° West 470 541 34,000  Level Gander Center
Sun 12:20:35 PM 58.4333 -64.2667 256° West 470 541 34,000  Level Gander Center
Sun 12:21:35 PM 58.4167 -64.5333 263° West 470 541 34,000  Level Gander Center
Sun 12:22:35 PM 58.3667 -64.7833 249° West 470 541 34,000  Level Gander Center
Sun 12:23:33 PM 58.3500 -64.9333 258° West 470 541 34,000  Level Montreal Center
Sun 12:24:33 PM 58.3167 -65.2000 257° West 470 541 34,000  Level Montreal Center
Sun 12:25:33 PM 58.2833 -65.4500 256° West 480 552 34,000  Level Montreal Center
Sun 12:26:33 PM 58.2500 -65.6833 255° West 480 552 34,000  Level Montreal Center
Sun 12:27:35 PM 58.2167 -66.0000 259° West 480 552 34,000  Level Gander Center
Sun 12:28:35 PM 58.2000 -66.2500 263° West 480 552 34,000  Level Gander Center
Sun 12:29:33 PM 58.1500 -66.4500 245° Southwest 480 552 34,000  Level Montreal Center
Sun 12:30:35 PM 58.1333 -66.7167 263° West 480 552 34,000  Level Gander Center
Sun 12:31:35 PM 58.1000 -66.9667 256° West 480 552 34,000  Level Gander Center
Sun 12:32:35 PM 58.0833 -67.2167 263° West 480 552 34,000  Level Gander Center
Sun 12:33:35 PM 58.0833 -67.4667 270° West 490 564 34,000  Level Gander Center
Sun 12:34:35 PM 58.0667 -67.7500 264° West 490 564 34,000  Level Gander Center
Sun 12:35:35 PM 58.0500 -68.0000 263° West 490 564 34,000  Level Gander Center
Sun 12:36:33 PM 58.0333 -68.2000 261° West 490 564 34,000  Level Montreal Center
Sun 12:37:33 PM 58.0167 -68.4333 262° West 480 552 34,000  Level Montreal Center
Sun 12:38:33 PM 58.0000 -68.6833 263° West 490 564 34,000  Level Montreal Center
Sun 12:39:33 PM 57.9833 -68.9500 263° West 490 564 34,000  Level Montreal Center
Sun 12:40:33 PM 57.9667 -69.2000 263° West 480 552 34,000  Level Montreal Center
Sun 12:41:33 PM 57.9167 -69.4333 248° West 480 552 34,000  Level Montreal Center
Sun 12:42:33 PM 57.8833 -69.7000 257° West 480 552 34,000  Level Montreal Center
Sun 12:43:33 PM 57.8667 -69.9167 262° West 480 552 34,000  Level Montreal Center
Sun 12:44:33 PM 57.8167 -70.1833 251° West 480 552 34,000  Level Montreal Center
Sun 12:45:33 PM 57.7833 -70.4000 254° West 480 552 34,000  Level Montreal Center
Sun 12:46:33 PM 57.7500 -70.6667 257° West 480 552 34,000  Level Montreal Center
Sun 12:47:33 PM 57.7167 -70.9167 256° West 480 552 34,000  Level Montreal Center
Sun 12:48:33 PM 57.6667 -71.1500 248° West 480 552 34,000  Level Montreal Center
Sun 12:49:33 PM 57.6333 -71.4000 256° West 480 552 34,000  Level Montreal Center
Sun 12:50:33 PM 57.6000 -71.6333 255° West 480 552 34,000  Level Montreal Center
Sun 12:51:33 PM 57.5667 -71.8833 256° West 480 552 34,000  Level Montreal Center
Sun 12:52:33 PM 57.5333 -72.1000 254° West 480 552 34,000  Level Montreal Center
Sun 12:53:33 PM 57.5000 -72.3667 257° West 480 552 34,000  Level Montreal Center
Sun 12:54:33 PM 57.4500 -72.5833 247° West 480 552 34,000  Level Montreal Center
Sun 12:55:33 PM 57.4167 -72.8333 256° West 480 552 34,000  Level Montreal Center
Sun 12:56:33 PM 57.3833 -73.0667 255° West 480 552 34,000  Level Montreal Center
Sun 12:57:33 PM 57.3333 -73.3167 250° West 480 552 34,000  Level Montreal Center
Sun 12:58:33 PM 57.3000 -73.5667 256° West 480 552 34,000  Level Montreal Center
Sun 12:59:33 PM 57.2667 -73.7833 254° West 480 552 34,000  Level Montreal Center
Sun 01:00:33 PM 57.2167 -74.0333 250° West 480 552 34,000  Level Montreal Center
Sun 01:01:33 PM 57.1667 -74.2833 250° West 480 552 34,000  Level Montreal Center
Sun 01:02:33 PM 57.1333 -74.5000 254° West 480 552 34,000  Level Montreal Center
Sun 01:03:33 PM 57.0833 -74.7500 250° West 480 552 34,000  Level Montreal Center
Sun 01:04:33 PM 57.0333 -74.9667 247° West 490 564 34,000  Level Montreal Center
Sun 01:05:33 PM 56.9833 -75.2167 250° West 490 564 34,000  Level Montreal Center
Sun 01:06:33 PM 56.9333 -75.4667 250° West 480 552 34,000  Level Montreal Center
Sun 01:07:33 PM 56.9000 -75.6833 254° West 490 564 34,000  Level Montreal Center
Sun 01:09:28 PM 56.8000 -76.1500 249° West 590 679 34,000  Level Montreal Center
Sun 01:10:31 PM 56.7167 -76.2500 213° Southwest 460 529 34,000  Level Edmonton Center
Sun 01:11:31 PM 56.6667 -76.4833 249° West 490 564 34,000  Level Edmonton Center
Sun 01:12:31 PM 56.6333 -76.7167 256° West 490 564 34,000  Level Edmonton Center
Sun 01:13:31 PM 56.5667 -76.9667 244° Southwest 490 564 34,000 200 Level Edmonton Center
Sun 01:14:31 PM 56.5333 -77.2000 256° West 490 564 34,400 750 Climbing Edmonton Center
Sun 01:15:31 PM 56.4833 -77.4333 249° West 500 575 35,500 800 Climbing Edmonton Center
Sun 01:16:31 PM 56.4333 -77.6833 250° West 500 575 36,000 250 Climbing Edmonton Center
Sun 01:17:31 PM 56.3833 -77.9167 249° West 500 575 36,000  Level Edmonton Center
Sun 01:18:31 PM 56.3333 -78.1167 246° West 490 564 36,000  Level Edmonton Center
Sun 01:19:31 PM 56.2833 -78.3500 249° West 500 575 36,000  Level Edmonton Center
Sun 01:20:31 PM 56.2333 -78.5833 249° West 490 564 36,000  Level Edmonton Center
Sun 01:21:31 PM 56.1667 -78.8167 243° Southwest 490 564 36,000  Level Edmonton Center
Sun 01:22:31 PM 56.1333 -79.0500 256° West 490 564 36,000  Level Edmonton Center
Sun 01:23:31 PM 56.0667 -79.2500 239° Southwest 490 564 36,000  Level Edmonton Center
Sun 01:24:31 PM 56.0167 -79.5167 252° West 500 575 36,000  Level Edmonton Center
Sun 01:25:31 PM 55.9667 -79.7000 244° Southwest 500 575 36,000  Level Edmonton Center
Sun 01:26:31 PM 55.9167 -79.9333 249° West 490 564 36,000  Level Edmonton Center
Sun 01:27:31 PM 55.8667 -80.2000 252° West 500 575 36,000  Level Edmonton Center
Sun 01:28:31 PM 55.8167 -80.4333 249° West 500 575 36,000  Level Edmonton Center
Sun 01:29:31 PM 55.7500 -80.6333 239° Southwest 490 564 36,000  Level Edmonton Center
Sun 01:30:31 PM 55.7000 -80.8500 248° West 490 564 36,000  Level Edmonton Center
Sun 01:31:31 PM 55.6500 -81.0833 249° West 490 564 36,000  Level Edmonton Center
Sun 01:32:31 PM 55.5833 -81.3000 242° Southwest 490 564 36,000  Level Edmonton Center
Sun 01:33:31 PM 55.5167 -81.5333 243° Southwest 500 575 36,000  Level Edmonton Center
Sun 01:34:31 PM 55.4833 -81.7500 255° West 500 575 36,000  Level Edmonton Center
Sun 01:35:31 PM 55.4167 -81.9833 243° Southwest 490 564 36,000  Level Edmonton Center
Sun 01:36:31 PM 55.3500 -82.2000 242° Southwest 500 575 36,000  Level Edmonton Center
Sun 01:37:31 PM 55.3167 -82.4167 255° West 500 575 36,000  Level Edmonton Center
Sun 01:38:31 PM 55.2500 -82.6167 240° Southwest 500 575 36,000  Level Edmonton Center
Sun 01:39:31 PM 55.1833 -82.8333 242° Southwest 500 575 36,000  Level Edmonton Center
Sun 01:40:31 PM 55.1167 -83.0833 245° Southwest 500 575 36,000  Level Edmonton Center
Sun 01:41:31 PM 55.0667 -83.3167 250° West 490 564 36,000  Level Edmonton Center
Sun 01:42:31 PM 55.0167 -83.5167 247° West 500 575 36,000  Level Edmonton Center
Sun 01:43:31 PM 54.9500 -83.7500 244° Southwest 490 564 36,000  Level Edmonton Center
Sun 01:44:31 PM 54.8833 -83.9333 238° Southwest 500 575 36,000  Level Edmonton Center
Sun 01:45:31 PM 54.8167 -84.1500 242° Southwest 500 575 36,000  Level Edmonton Center
Sun 01:46:31 PM 54.7500 -84.4000 245° Southwest 510 587 36,000  Level Edmonton Center
Sun 01:47:31 PM 54.6833 -84.6000 240° Southwest 500 575 36,000  Level Edmonton Center
Sun 01:48:31 PM 54.6333 -84.8000 247° West 500 575 36,000  Level Edmonton Center
Sun 01:49:31 PM 54.5667 -85.0500 245° Southwest 500 575 36,000  Level Edmonton Center
Sun 01:50:31 PM 54.5000 -85.2333 238° Southwest 500 575 36,000  Level Edmonton Center
Sun 01:51:31 PM 54.4333 -85.4833 245° Southwest 500 575 36,000  Level Edmonton Center
Sun 01:52:31 PM 54.3833 -85.6667 245° Southwest 500 575 36,000  Level Edmonton Center
Sun 01:53:31 PM 54.3167 -85.9000 244° Southwest 500 575 36,000  Level Edmonton Center
Sun 01:54:31 PM 54.2333 -86.0833 232° Southwest 500 575 36,000  Level Edmonton Center
Sun 01:55:31 PM 54.1833 -86.3000 249° West 500 575 36,000  Level Edmonton Center
Sun 01:56:31 PM 54.1167 -86.5000 240° Southwest 500 575 36,000  Level Edmonton Center
Sun 01:57:31 PM 54.0500 -86.7167 242° Southwest 490 564 36,000  Level Edmonton Center
Sun 01:58:31 PM 53.9667 -86.9333 237° Southwest 490 564 36,000  Level Edmonton Center
Sun 01:59:31 PM 53.9167 -87.1333 247° West 500 575 36,000  Level Edmonton Center
Sun 02:00:31 PM 53.8500 -87.3333 241° Southwest 500 575 36,000  Level Edmonton Center
Sun 02:01:31 PM 53.7833 -87.5500 243° Southwest 490 564 36,000  Level Edmonton Center
Sun 02:02:31 PM 53.7167 -87.7500 241° Southwest 490 564 36,000  Level Edmonton Center
Sun 02:03:31 PM 53.6500 -87.9500 241° Southwest 490 564 36,000  Level Edmonton Center
Sun 02:04:31 PM 53.5667 -88.1333 233° Southwest 490 564 36,000  Level Edmonton Center
Sun 02:05:31 PM 53.5000 -88.3667 244° Southwest 490 564 36,000  Level Edmonton Center
Sun 02:06:31 PM 53.4333 -88.5333 236° Southwest 490 564 36,000  Level Edmonton Center
Sun 02:07:31 PM 53.3667 -88.7500 243° Southwest 490 564 36,000  Level Edmonton Center
Sun 02:08:31 PM 53.3000 -88.9333 239° Southwest 490 564 36,000  Level Edmonton Center
Sun 02:09:31 PM 53.2333 -89.1500 243° Southwest 490 564 36,000  Level Edmonton Center
Sun 02:10:31 PM 53.1500 -89.3500 235° Southwest 490 564 36,000  Level Edmonton Center
Sun 02:11:31 PM 53.1000 -89.5333 246° West 490 564 36,000  Level Edmonton Center
Sun 02:12:31 PM 53.0167 -89.7500 237° Southwest 490 564 36,000  Level Edmonton Center
Sun 02:13:31 PM 52.9500 -89.9500 241° Southwest 490 564 36,000  Level Edmonton Center
Sun 02:14:31 PM 52.8833 -90.1333 239° Southwest 480 552 36,000  Level Edmonton Center
Sun 02:15:31 PM 52.8000 -90.3000 230° Southwest 480 552 36,000  Level Edmonton Center
Sun 02:16:31 PM 52.7500 -90.5000 248° West 480 552 36,000  Level Edmonton Center
Sun 02:17:31 PM 52.6667 -90.7000 236° Southwest 480 552 36,000  Level Edmonton Center
Sun 02:18:31 PM 52.6000 -90.8833 239° Southwest 480 552 36,000  Level Edmonton Center
Sun 02:19:31 PM 52.5333 -91.0833 241° Southwest 480 552 36,000  Level Edmonton Center
Sun 02:20:31 PM 52.4667 -91.2500 237° Southwest 480 552 36,000  Level Edmonton Center
Sun 02:21:31 PM 52.3833 -91.4500 236° Southwest 480 552 36,000  Level Edmonton Center
Sun 02:22:31 PM 52.3167 -91.6333 239° Southwest 480 552 36,000  Level Edmonton Center
Sun 02:23:31 PM 52.2333 -91.8000 231° Southwest 480 552 36,000  Level Edmonton Center
Sun 02:24:31 PM 52.1667 -91.9833 239° Southwest 480 552 36,000  Level Edmonton Center
Sun 02:25:31 PM 52.1000 -92.1833 242° Southwest 480 552 36,000  Level Edmonton Center
Sun 02:26:31 PM 52.0333 -92.3667 239° Southwest 480 552 36,000  Level Edmonton Center
Sun 02:27:31 PM 51.9500 -92.5333 231° Southwest 470 541 36,000  Level Edmonton Center
Sun 02:28:31 PM 51.8833 -92.7167 240° Southwest 470 541 36,000  Level Edmonton Center
Sun 02:29:31 PM 51.8000 -92.9000 234° Southwest 470 541 36,000  Level Edmonton Center
Sun 02:30:31 PM 51.7333 -93.0667 237° Southwest 470 541 36,000  Level Edmonton Center
Sun 02:31:31 PM 51.6667 -93.2500 240° Southwest 480 552 36,000  Level Edmonton Center
Sun 02:32:31 PM 51.5833 -93.4333 234° Southwest 480 552 36,000  Level Edmonton Center
Sun 02:33:31 PM 51.5167 -93.6167 240° Southwest 480 552 36,000  Level Edmonton Center
Sun 02:34:31 PM 51.4500 -93.8000 240° Southwest 480 552 36,000  Level Edmonton Center
Sun 02:35:31 PM 51.3667 -93.9833 234° Southwest 480 552 36,000  Level Edmonton Center
Sun 02:36:31 PM 51.2833 -94.1500 231° Southwest 480 552 36,000  Level Edmonton Center
Sun 02:37:31 PM 51.2167 -94.3167 237° Southwest 480 552 36,000  Level Edmonton Center
Sun 02:38:31 PM 51.1333 -94.5000 234° Southwest 480 552 36,000  Level Edmonton Center
Sun 02:39:31 PM 51.0667 -94.6833 240° Southwest 480 552 36,000  Level Edmonton Center
Sun 02:40:31 PM 50.9667 -94.8667 229° Southwest 480 552 36,000  Level Edmonton Center
Sun 02:41:31 PM 50.9000 -95.0167 235° Southwest 480 552 36,000  Level Edmonton Center
Sun 02:42:31 PM 50.8167 -95.2000 234° Southwest 480 552 36,000  Level Edmonton Center
Sun 02:43:31 PM 50.7500 -95.3833 240° Southwest 470 541 36,000  Level Edmonton Center
Sun 02:44:31 PM 50.6833 -95.5500 238° Southwest 470 541 36,000  Level Edmonton Center
Sun 02:45:31 PM 50.5833 -95.7000 224° Southwest 470 541 36,000  Level Edmonton Center
Sun 02:50:41 PM 50.2240 -96.6210 234° Southwest 474 545 36,000  Level FlightAware ADS-B (SEQM / UIO)
Sun 02:51:57 PM 50.1260 -96.8260 234° Southwest 474 545 36,000  Level FlightAware ADS-B (SEQM / UIO)
Sun 02:52:32 PM 50.0800 -96.9220 234° Southwest 471 542 36,000  Level FlightAware ADS-B (SEQM / UIO)
Sun 02:53:01 PM 50.0430 -97.0000 234° Southwest 471 542 36,000  Level FlightAware ADS-B (SEQM / UIO)
Sun 02:53:45 PM 49.9910 -97.1110 234° Southwest 468 539 36,000  Level FlightAware ADS-B (SEQM / UIO)
Sun 02:54:21 PM 49.9390 -97.2150 234° Southwest 464 534 36,000  Level FlightAware ADS-B (SEQM / UIO)
Sun 02:54:56 PM 49.8960 -97.3050 233° Southwest 464 534 36,000  Level FlightAware ADS-B (SEQM / UIO)
Sun 02:55:25 PM 49.8560 -97.3830 232° Southwest 464 534 36,000  Level FlightAware ADS-B (SEQM / UIO)
Sun 02:55:57 PM 49.8140 -97.4660 233° Southwest 463 533 36,000  Level FlightAware ADS-B (SEQM / UIO)
Sun 02:56:25 PM 49.7760 -97.5420 233° Southwest 461 531 36,000  Level FlightAware ADS-B (SEQM / UIO)
Sun 02:56:56 PM 49.7370 -97.6190 233° Southwest 458 527 36,000  Level FlightAware ADS-B (SEQM / UIO)
Sun 02:57:24 PM 49.7000 -97.6930 233° Southwest 455 524 36,000  Level FlightAware ADS-B (SEQM / UIO)
Sun 02:58:05 PM 49.6480 -97.7970 232° Southwest 449 517 36,000  Level FlightAware ADS-B (SEQM / UIO)
Sun 02:59:02 PM 49.5760 -97.9360 232° Southwest 442 509 36,000  Level FlightAware ADS-B (SEQM / UIO)
Sun 02:59:40 PM 49.5340 -98.0170 232° Southwest 438 504 36,000  Level FlightAware ADS-B (SEQM / UIO)
Sun 03:00:16 PM 49.4830 -98.1170 232° Southwest 436 502 36,000  Level FlightAware ADS-B (SEQM / UIO)
Sun 03:00:45 PM 49.4460 -98.1890 232° Southwest 434 499 36,000  Level FlightAware ADS-B (SEQM / UIO)
Sun 03:01:21 PM 49.4020 -98.2740 232° Southwest 435 501 36,000  Level FlightAware ADS-B (SEQM / UIO)
Sun 03:01:58 PM 49.3333 -98.3500 232° Southwest 430 495 36,000  Level Winnipeg Center
Sun 03:02:58 PM 49.2667 -98.5000 236° Southwest 430 495 36,000  Level Winnipeg Center
Sun 03:03:58 PM 49.2000 -98.6333 233° Southwest 430 495 36,000  Level Winnipeg Center
Sun 03:04:58 PM 49.1167 -98.7833 230° Southwest 440 506 36,000  Level Winnipeg Center
Sun 03:05:58 PM 49.0500 -98.9333 236° Southwest 440 506 36,000  Level Winnipeg Center
Sun 03:06:58 PM 48.9500 -99.0833 225° Southwest 440 506 36,000  Level Winnipeg Center
Sun 03:07:58 PM 48.8833 -99.2333 236° Southwest 430 495 36,000  Level Winnipeg Center
Sun 03:08:29 PM 48.8622 -99.2939 242° Southwest 436 502 36,000  Level Minneapolis Center
Sun 03:09:31 PM 48.7844 -99.4353 230° Southwest 436 502 36,000  Level Minneapolis Center
Sun 03:10:33 PM 48.7064 -99.5781 230° Southwest 437 503 36,000  Level Minneapolis Center
Sun 03:11:34 PM 48.6306 -99.7178 231° Southwest 437 503 36,000  Level Minneapolis Center
Sun 03:12:36 PM 48.5522 -99.8581 230° Southwest 437 503 36,000  Level Minneapolis Center
Sun 03:13:37 PM 48.4756 -99.9994 231° Southwest 437 503 36,000  Level Minneapolis Center
Sun 03:14:39 PM 48.3808 -100.1675 230° Southwest 437 503 36,000  Level Minneapolis Center
Sun 03:15:40 PM 48.3017 -100.3089 230° Southwest 438 504 36,000  Level Minneapolis Center
Sun 03:16:42 PM 48.2236 -100.4489 230° Southwest 439 505 36,000  Level Minneapolis Center
Sun 03:17:44 PM 48.1433 -100.5917 230° Southwest 441 507 36,000  Level Minneapolis Center
Sun 03:18:45 PM 48.0611 -100.7342 229° Southwest 446 513 36,000  Level Minneapolis Center
Sun 03:19:47 PM 47.9797 -100.8767 230° Southwest 449 517 36,000  Level Minneapolis Center
Sun 03:20:48 PM 47.9000 -101.0172 230° Southwest 449 517 36,000  Level Minneapolis Center
Sun 03:21:50 PM 47.8178 -101.1658 231° Southwest 449 517 36,000  Level Minneapolis Center
Sun 03:22:51 PM 47.7358 -101.3086 230° Southwest 449 517 36,000  Level Minneapolis Center
Sun 03:23:53 PM 47.6386 -101.4789 230° Southwest 450 518 36,000  Level Minneapolis Center
Sun 03:24:54 PM 47.5578 -101.6206 230° Southwest 450 518 36,000  Level Minneapolis Center
Sun 03:25:56 PM 47.4742 -101.7614 229° Southwest 451 519 36,000  Level Minneapolis Center
Sun 03:26:57 PM 47.3858 -101.9053 228° Southwest 462 532 36,000  Level Minneapolis Center
Sun 03:27:59 PM 47.3017 -102.0461 229° Southwest 462 532 36,000  Level Minneapolis Center
Sun 03:29:00 PM 47.2181 -102.1872 229° Southwest 461 531 36,000  Level Minneapolis Center
Sun 03:30:02 PM 47.1331 -102.3283 229° Southwest 460 529 36,000  Level Minneapolis Center
Sun 03:31:04 PM 47.0478 -102.4683 228° Southwest 460 529 36,000  Level Minneapolis Center
Sun 03:32:05 PM 46.9628 -102.6072 228° Southwest 459 528 36,000  Level Minneapolis Center
Sun 03:33:07 PM 46.8619 -102.7747 229° Southwest 459 528 36,000  Level Minneapolis Center
Sun 03:34:08 PM 46.7667 -102.9042 223° Southwest 461 531 36,000  Level Minneapolis Center
Sun 03:35:10 PM 46.6675 -103.0347 222° Southwest 470 541 36,000  Level Minneapolis Center
Sun 03:36:11 PM 46.5719 -103.1633 223° Southwest 472 543 36,000  Level Minneapolis Center
Sun 03:37:13 PM 46.4778 -103.2917 223° Southwest 470 541 36,000  Level Minneapolis Center
Sun 03:38:14 PM 46.3819 -103.4194 223° Southwest 469 540 36,000  Level Minneapolis Center
Sun 03:39:17 PM 46.2864 -103.5478 223° Southwest 469 540 36,000  Level Minneapolis Center
Sun 03:40:18 PM 46.1897 -103.6750 222° Southwest 469 540 36,000  Level Minneapolis Center
Sun 03:41:20 PM 46.0756 -103.8264 223° Southwest 468 539 36,000  Level Minneapolis Center
Sun 03:42:21 PM 45.9792 -103.9517 222° Southwest 468 539 36,000  Level Minneapolis Center
Sun 03:43:26 PM 45.8828 -104.0739 221° Southwest 468 539 36,000  Level Salt Lake Center
Sun 03:44:28 PM 45.7853 -104.1983 222° Southwest 468 539 36,000  Level Salt Lake Center
Sun 03:45:30 PM 45.6872 -104.3239 222° Southwest 470 541 36,000  Level Salt Lake Center
Sun 03:46:32 PM 45.5689 -104.4769 222° Southwest 476 548 36,000  Level Salt Lake Center
Sun 03:47:34 PM 45.4642 -104.6114 222° Southwest 480 552 36,000  Level Salt Lake Center
Sun 03:47:46 PM 45.4444 -104.6364 222° Southwest 480 552 36,000  Level Salt Lake Center
Sun 03:48:48 PM 45.3436 -104.7622 221° Southwest 482 555 36,000  Level Salt Lake Center
Sun 03:49:50 PM 45.2425 -104.8883 221° Southwest 485 558 36,000  Level Salt Lake Center
Sun 03:50:51 PM 45.1392 -105.0117 220° Southwest 486 559 36,000  Level Salt Lake Center
Sun 03:51:53 PM 45.0375 -105.1367 221° Southwest 485 558 36,000  Level Salt Lake Center
Sun 03:52:55 PM 44.9364 -105.2619 221° Southwest 485 558 36,000  Level Salt Lake Center
Sun 03:53:30 PM 44.8744 -105.3353 220° Southwest 485 558 36,000  Level Denver Center
Sun 03:54:33 PM 44.7725 -105.4572 220° Southwest 484 557 36,000  Level Denver Center
Sun 03:55:35 PM 44.6506 -105.6047 221° Southwest 484 557 36,000  Level Denver Center
Sun 03:56:37 PM 44.5483 -105.7261 220° Southwest 484 557 36,000  Level Denver Center
Sun 03:57:39 PM 44.4503 -105.8414 220° Southwest 484 557 36,000  Level Denver Center
Sun 03:58:41 PM 44.3356 -105.9769 220° Southwest 484 557 36,000  Level Denver Center
Sun 03:59:43 PM 44.2356 -106.0939 220° Southwest 487 560 36,000  Level Denver Center
Sun 04:00:45 PM 44.1206 -106.2278 220° Southwest 487 560 36,000  Level Denver Center
Sun 04:01:47 PM 44.0206 -106.3447 220° Southwest 488 562 36,000  Level Denver Center
Sun 04:03:01 PM 43.9039 -106.4792 220° Southwest 490 564 36,000  Level Denver Center
Sun 04:04:04 PM 43.7706 -106.6328 220° Southwest 490 564 36,000  Level Denver Center
Sun 04:05:06 PM 43.6717 -106.7456 220° Southwest 489 563 36,000  Level Denver Center
Sun 04:06:08 PM 43.5569 -106.8761 220° Southwest 487 560 36,000  Level Denver Center
Sun 04:07:10 PM 43.4681 -106.9778 220° Southwest 480 552 36,000  Level Denver Center
Sun 04:08:12 PM 43.3458 -107.1156 219° Southwest 477 549 36,000  Level Denver Center
Sun 04:09:15 PM 43.2442 -107.2292 219° Southwest 476 548 36,000  Level Denver Center
Sun 04:10:25 PM 43.1206 -107.3664 219° Southwest 473 544 36,000  Level Salt Lake Center
Sun 04:11:27 PM 43.0172 -107.4828 219° Southwest 476 548 36,000  Level Salt Lake Center
Sun 04:12:28 PM 42.9214 -107.5894 219° Southwest 474 545 36,000  Level Salt Lake Center
Sun 04:13:30 PM 42.8056 -107.7156 219° Southwest 475 547 36,000  Level Salt Lake Center
Sun 04:14:32 PM 42.7078 -107.8256 220° Southwest 476 548 36,000  Level Salt Lake Center
Sun 04:15:34 PM 42.5925 -107.9500 218° Southwest 475 547 36,000  Level Salt Lake Center
Sun 04:16:36 PM 42.4942 -108.0569 219° Southwest 475 547 36,000  Level Salt Lake Center
Sun 04:17:37 PM 42.3786 -108.1811 218° Southwest 475 547 36,000  Level Salt Lake Center
Sun 04:23:31 PM 41.7781 -108.8170 218° Southwest 479 551 36,000  Level FlightAware ADS-B
Sun 04:24:30 PM 41.6602 -108.9414 218° Southwest 481 554 36,000  Level FlightAware ADS-B
Sun 04:25:50 PM 41.5930 -109.0175 230° Southwest 470 541 36,000  Level FlightAware ADS-B
Sun 04:27:43 PM 41.3777 -109.3552 230° Southwest 468 539 36,000  Level FlightAware ADS-B
Sun 04:31:03 PM 41.0983 -109.8001 230° Southwest 474 545 36,000  Level FlightAware ADS-B
Sun 04:31:59 PM 41.0192 -109.9237 230° Southwest 468 539 36,000  Level FlightAware ADS-B
Sun 04:33:06 PM 40.9254 -110.0710 230° Southwest 472 543 36,000  Level FlightAware ADS-B
Sun 04:34:10 PM 40.8346 -110.2118 230° Southwest 472 543 36,000  Level FlightAware ADS-B
Sun 04:35:02 PM 40.7611 -110.3261 230° Southwest 475 547 36,000  Level FlightAware ADS-B
Sun 04:35:35 PM 40.7175 -110.3923 230° Southwest 473 544 36,000  Level FlightAware ADS-B
Sun 04:36:08 PM 40.6736 -110.4601 230° Southwest 472 543 36,000  Level FlightAware ADS-B
Sun 04:36:39 PM 40.6246 -110.5363 230° Southwest 472 543 36,000  Level FlightAware ADS-B
Sun 04:37:16 PM 40.5710 -110.6193 230° Southwest 472 543 36,000  Level FlightAware ADS-B
Sun 04:37:53 PM 40.5192 -110.6976 229° Southwest 472 543 36,000  Level FlightAware ADS-B
Sun 04:38:28 PM 40.4880 -110.7453 229° Southwest 471 542 36,000  Level FlightAware ADS-B
Sun 04:39:03 PM 40.4635 -110.7822 229° Southwest 471 542 36,000  Level FlightAware ADS-B
Sun 04:39:34 PM 40.3765 -110.9143 229° Southwest 471 542 36,000  Level FlightAware ADS-B
Sun 04:40:06 PM 40.3693 -110.9273 229° Southwest 470 541 36,000  Level FlightAware ADS-B
Sun 04:40:36 PM 40.2866 -111.0524 229° Southwest 472 543 36,000  Level FlightAware ADS-B
Sun 04:41:06 PM 40.2438 -111.1172 229° Southwest 472 543 36,000  Level FlightAware ADS-B
Sun 04:41:39 PM 40.1965 -111.1882 229° Southwest 472 543 36,000  Level FlightAware ADS-B
Sun 04:42:11 PM 40.1509 -111.2571 229° Southwest 473 544 36,000  Level FlightAware ADS-B
Sun 04:42:42 PM 40.1116 -111.3153 229° Southwest 473 544 36,000  Level FlightAware ADS-B
Sun 04:43:14 PM 40.0650 -111.3842 229° Southwest 474 545 36,000  Level FlightAware ADS-B
Sun 04:43:36 PM 40.0298 -111.4380 230° Southwest 468 539 36,000  Level FlightAware ADS-B (KBTF)
Sun 04:43:56 PM 40.0002 -111.4808 230° Southwest 467 537 36,000  Level FlightAware ADS-B (KBTF)
Sun 04:44:37 PM 39.9407 -111.5706 229° Southwest 470 541 36,000  Level FlightAware ADS-B
Sun 04:45:19 PM 39.8801 -111.6598 229° Southwest 471 542 36,000  Level FlightAware ADS-B (KBTF)
Sun 04:45:50 PM 39.8367 -111.7236 229° Southwest 471 542 36,000  Level FlightAware ADS-B
Sun 04:46:19 PM 39.7947 -111.7855 229° Southwest 472 543 36,000  Level FlightAware ADS-B
Sun 04:46:51 PM 39.7489 -111.8538 229° Southwest 474 545 36,000  Level FlightAware ADS-B
Sun 04:47:25 PM 39.6998 -111.9264 229° Southwest 474 545 36,000  Level FlightAware ADS-B
Sun 04:48:00 PM 39.6486 -112.0008 229° Southwest 469 540 36,000  Level FlightAware ADS-B (KBTF)
Sun 04:48:37 PM 39.5942 -112.0816 229° Southwest 474 545 36,000  Level FlightAware ADS-B
Sun 04:49:07 PM 39.5514 -112.1432 228° Southwest 475 547 36,000  Level FlightAware ADS-B
Sun 04:49:39 PM 39.5050 -112.2112 229° Southwest 470 541 36,000  Level FlightAware ADS-B (KBTF)
Sun 04:49:49 PM 39.4932 -112.2283 228° Southwest 476 548 36,000  Level FlightAware ADS-B
Sun 04:50:12 PM 39.4553 -112.2834 228° Southwest 476 548 36,000  Level FlightAware ADS-B
Sun 04:50:43 PM 39.4095 -112.3495 228° Southwest 476 548 36,000  Level FlightAware ADS-B
Sun 04:51:21 PM 39.3543 -112.4300 229° Southwest 471 542 36,000  Level FlightAware ADS-B (KBTF)
Sun 04:51:51 PM 39.3143 -112.4964 240° Southwest 458 527 36,000  Level FlightAware ADS-B
Sun 04:52:11 PM 39.2961 -112.5454 251° West 446 513 36,000  Level FlightAware ADS-B
Sun 04:52:42 PM 39.2783 -112.6242 253° West 445 512 36,000  Level FlightAware ADS-B (KBTF)
Sun 04:53:06 PM 39.2627 -112.6849 252° West 448 516 36,000  Level FlightAware ADS-B
Sun 04:53:39 PM 39.2426 -112.7664 253° West 447 514 36,000  Level FlightAware ADS-B
Sun 04:54:12 PM 39.2226 -112.8503 255° West 443 510 36,000  Level FlightAware ADS-B
Sun 04:54:42 PM 39.2058 -112.9267 254° West 445 512 36,000  Level FlightAware ADS-B
Sun 04:54:51 PM 39.2000 -112.9522 255° West 443 510 36,000  Level FlightAware ADS-B
Sun 04:55:01 PM 39.1948 -112.9751 255° West 443 510 36,000  Level FlightAware ADS-B (KBTF)
Sun 04:55:21 PM 39.1829 -113.0287 255° West 444 511 36,000  Level FlightAware ADS-B (KBTF)
Sun 04:55:43 PM 39.1712 -113.0822 254° West 447 514 36,000  Level FlightAware ADS-B
Sun 04:56:00 PM 39.1606 -113.1281 255° West 445 512 36,000  Level FlightAware ADS-B
Sun 04:56:23 PM 39.1472 -113.1871 254° West 448 516 36,000  Level FlightAware ADS-B
Sun 04:56:44 PM 39.1361 -113.2354 254° West 448 516 36,000  Level FlightAware ADS-B
Sun 04:57:15 PM 39.1169 -113.3197 253° West 447 514 36,000  Level FlightAware ADS-B
Sun 04:57:46 PM 39.0984 -113.3985 253° West 446 513 36,000  Level FlightAware ADS-B
Sun 04:58:17 PM 39.0806 -113.4745 253° West 446 513 36,000  Level FlightAware ADS-B
Sun 04:58:47 PM 39.0625 -113.5507 253° West 446 513 36,000  Level FlightAware ADS-B
Sun 04:59:27 PM 39.0399 -113.6469 253° West 445 512 36,000  Level FlightAware ADS-B
Sun 04:59:59 PM 39.0191 -113.7355 253° West 446 513 36,000  Level FlightAware ADS-B
Sun 05:00:29 PM 39.0018 -113.8090 253° West 447 514 36,000  Level FlightAware ADS-B
Sun 05:01:02 PM 38.9814 -113.8954 253° West 446 513 36,000  Level FlightAware ADS-B
Sun 05:01:52 PM 38.9515 -114.0196 253° West 448 516 36,000  Level FlightAware ADS-B
Sun 05:02:22 PM 38.9327 -114.0982 253° West 447 514 36,000  Level FlightAware ADS-B
Sun 05:02:52 PM 38.9146 -114.1743 253° West 448 516 36,000  Level FlightAware ADS-B
Sun 05:03:23 PM 38.8955 -114.2528 253° West 447 514 36,000  Level FlightAware ADS-B
Sun 05:04:03 PM 38.8786 -114.3267 253° West 447 514 36,000  Level Salt Lake Center
Sun 05:05:05 PM 38.8414 -114.4781 253° West 446 513 36,000  Level Salt Lake Center
Sun 05:06:07 PM 38.7969 -114.6594 253° West 446 513 36,000  Level Salt Lake Center
Sun 05:07:09 PM 38.7611 -114.8092 253° West 445 512 36,000  Level Salt Lake Center
Sun 05:08:11 PM 38.7231 -114.9597 252° West 445 512 36,000  Level Salt Lake Center
Sun 05:09:12 PM 38.6856 -115.1100 252° West 445 512 36,000  Level Salt Lake Center
Sun 05:10:14 PM 38.6472 -115.2594 252° West 445 512 36,000  Level Salt Lake Center
Sun 05:11:16 PM 38.6081 -115.4119 252° West 445 512 36,000  Level Salt Lake Center
Sun 05:12:17 PM 38.5706 -115.5611 252° West 444 511 36,000  Level Salt Lake Center
Sun 05:13:19 PM 38.5319 -115.7103 252° West 444 511 36,000  Level Salt Lake Center
Sun 05:14:21 PM 38.4861 -115.8900 252° West 444 511 36,000  Level Salt Lake Center
Sun 05:15:23 PM 38.4475 -116.0386 252° West 444 511 36,000  Level Salt Lake Center
Sun 05:16:24 PM 38.4086 -116.1875 252° West 443 510 36,000  Level Salt Lake Center
Sun 05:17:26 PM 38.3700 -116.3350 252° West 443 510 36,000  Level Salt Lake Center
Sun 05:18:28 PM 38.3311 -116.4811 251° West 440 506 36,000  Level Salt Lake Center
Sun 05:19:30 PM 38.2919 -116.6281 251° West 438 504 36,000  Level Salt Lake Center
Sun 05:20:31 PM 38.2536 -116.7736 252° West 438 504 36,000 -49 Level Salt Lake Center
Sun 05:21:33 PM 38.2067 -116.9475 251° West 434 499 35,900 -629 Descending Salt Lake Center
Sun 05:22:35 PM 38.1822 -117.0947 258° West 432 497 34,700 -919 Descending Salt Lake Center
Sun 05:23:37 PM 38.1669 -117.2292 262° West 429 494 34,000 -339 Descending Salt Lake Center
Sun 05:24:39 PM 38.1439 -117.3875 260° West 440 506 34,000  Level Salt Lake Center
Sun 05:25:41 PM 38.1203 -117.5656 260° West 430 495 34,000  Level Salt Lake Center
Sun 05:26:43 PM 38.1006 -117.7156 261° West 430 495 34,000  Level Salt Lake Center
Sun 05:27:45 PM 38.0811 -117.8647 261° West 429 494 34,000  Level Salt Lake Center
Sun 05:28:46 PM 38.0611 -118.0147 260° West 429 494 34,000  Level Salt Lake Center
Sun 05:29:48 PM 38.0408 -118.1633 260° West 429 494 34,000  Level Salt Lake Center
Sun 05:35:30 PM 37.9282 -118.9746 259° West 418 481 34,000  Level FlightAware ADS-B (KSAC)
Sun 05:37:11 PM 37.8868 -119.2627 259° West 414 476 34,000  Level FlightAware ADS-B (KSAC)
Sun 05:37:51 PM 37.8741 -119.3489 259° West 415 478 34,000  Level FlightAware ADS-B (KSAC)
Sun 05:38:31 PM 37.8606 -119.4421 259° West 417 480 34,000  Level FlightAware ADS-B (KSAC)
Sun 05:39:12 PM 37.8483 -119.5260 259° West 417 480 34,000  Level FlightAware ADS-B (KSAC)
Sun 05:40:12 PM 37.8230 -119.6938 259° West 418 481 34,000  Level FlightAware ADS-B (KSAC)
Sun 05:40:51 PM 37.8131 -119.7609 259° West 417 480 34,000  Level FlightAware ADS-B (KSAC)
Sun 05:41:32 PM 37.7985 -119.8592 259° West 416 479 34,000  Level FlightAware ADS-B (KSAC)
Sun 05:42:11 PM 37.7847 -119.9499 259° West 415 478 34,000  Level FlightAware ADS-B (KSAC)
Sun 05:42:51 PM 37.7708 -120.0403 259° West 414 476 34,000 -225 Level FlightAware ADS-B (KSAC)
Sun 05:43:31 PM 37.7563 -120.1371 259° West 404 465 33,700 -1,545 Descending FlightAware ADS-B (KSAC)
Sun 05:44:32 PM 37.7348 -120.2761 259° West 395 455 31,400 -2,353 Descending FlightAware ADS-B (KSAC)
Sun 05:45:13 PM 37.7197 -120.3736 258° West 394 453 29,700 -2,325 Descending FlightAware ADS-B (KSAC)
Sun 05:45:52 PM 37.7062 -120.4608 259° West 387 445 28,300 -2,077 Descending FlightAware ADS-B (KSAC)
Sun 05:46:31 PM 37.6930 -120.5443 258° West 380 437 27,000 -2,325 Descending FlightAware ADS-B (KSAC)
Sun 05:47:12 PM 37.6749 -120.6601 258° West 369 425 25,200 -2,250 Descending FlightAware ADS-B (KSAC)
Sun 05:47:51 PM 37.6620 -120.7415 258° West 360 414 24,000 -1,782 Descending FlightAware ADS-B (KSAC)
Sun 05:48:53 PM 37.6469 -120.8349 258° West 346 398 22,200 -1,574 Descending FlightAware ADS-B (KSAC)
Sun 05:49:53 PM 37.6276 -120.9585 260° West 334 384 20,800 -1,440 Descending FlightAware ADS-B (KSAC)
Sun 05:50:33 PM 37.6185 -121.0350 262° West 328 377 19,800 -1,875 Descending FlightAware ADS-B (KSAC)
Sun 05:51:13 PM 37.6104 -121.1104 262° West 324 373 18,300 -1,425 Descending FlightAware ADS-B (KSAC)
Sun 05:51:53 PM 37.6022 -121.1831 261° West 322 371 17,900 -1,443 Descending FlightAware ADS-B (KSAC)
Sun 05:52:32 PM 37.5941 -121.2528 261° West 330 380 16,400 -3,000 Descending FlightAware ADS-B (KSAC)
Sun 05:52:45 PM 37.5879 -121.3060 262° West 328 377 15,300 -2,927 Descending FlightAware ADS-B
Sun 05:53:13 PM 37.5815 -121.3610 260° West 329 379 14,400 -894 Descending FlightAware ADS-B
Sun 05:53:32 PM 37.5830 -121.3495 258° West 328 377 14,600 -1,355 Climbing FlightAware ADS-B (KSAC)
Sun 05:53:44 PM 37.5711 -121.4160 256° West 320 368 13,700 -3,070 Descending FlightAware ADS-B
Sun 05:54:15 PM 37.5600 -121.4740 257° West 333 383 12,400 -2,073 Descending FlightAware ADS-B
Sun 05:54:39 PM 37.5523 -121.5167 257° West 325 374 11,800 -1,600 Descending FlightAware ADS-B (EPLL / LCJ)
Sun 05:54:45 PM 37.5497 -121.5310 257° West 325 374 11,600 -1,622 Descending FlightAware ADS-B
Sun 05:55:16 PM 37.5395 -121.5890 258° West 319 367 10,800 -1,588 Descending FlightAware ADS-B
Sun 05:55:19 PM 37.5385 -121.5940 258° West 323 372 10,700 -375 Descending FlightAware ADS-B (EPLL / LCJ)
Sun 05:55:48 PM 37.5298 -121.6430 257° West 295 339 10,600 545 Descending FlightAware ADS-B
Sun 05:55:52 PM 37.5328 -121.6258 257° West 301 346 11,000 -938 Climbing FlightAware ADS-B (KSAC)
Sun 05:56:20 PM 37.5203 -121.6970 257° West 280 322 10,100 -1,674 Descending FlightAware ADS-B
Sun 05:56:35 PM 37.5161 -121.7200 257° West 276 318 9,800 -1,500 Descending FlightAware ADS-B
Sun 05:56:52 PM 37.5113 -121.7450 257° West 273 314 9,300 -1,680 Descending FlightAware ADS-B
Sun 05:57:00 PM 37.5091 -121.7576 257° West 272 313 9,100 -1,600 Descending FlightAware ADS-B (EPLL / LCJ)
Sun 05:57:07 PM 37.5070 -121.7700 257° West 272 313 8,900 -1,895 Descending FlightAware ADS-B
Sun 05:57:19 PM 37.5036 -121.7884 257° West 272 313 8,500 -2,000 Descending FlightAware ADS-B (EPLL / LCJ)
Sun 05:57:22 PM 37.5028 -121.7930 257° West 272 313 8,400 -1,000 Descending FlightAware ADS-B
Sun 05:57:37 PM 37.4985 -121.8160 257° West 268 308 8,200 -1,000 Descending FlightAware ADS-B
Sun 05:57:40 PM 37.4976 -121.8205 257° West 266 306 8,100 -800 Descending FlightAware ADS-B (EPLL / LCJ)
Sun 05:57:52 PM 37.4943 -121.8380 257° West 261 300 8,000 -600 Descending FlightAware ADS-B
Sun 05:58:00 PM 37.4925 -121.8487 257° West 256 295 7,900 -947 Descending FlightAware ADS-B (EPLL / LCJ)
Sun 05:58:11 PM 37.4894 -121.8650 257° West 255 293 7,700 -900 Descending FlightAware ADS-B
Sun 05:58:20 PM 37.4872 -121.8775 257° West 250 288 7,600 -800 Descending FlightAware ADS-B (EPLL / LCJ)
Sun 05:58:26 PM 37.4854 -121.8870 257° West 250 288 7,500 -1,412 Descending FlightAware ADS-B
Sun 05:58:37 PM 37.4826 -121.9030 258° West 250 288 7,200 -1,714 Descending FlightAware ADS-B
Sun 05:58:40 PM 37.4824 -121.9032 259° West 250 288 7,100 -1,200 Descending FlightAware ADS-B (EPLL / LCJ)
Sun 05:58:42 PM 37.4815 -121.9100 262° West 251 289 7,100 -1,714 Level FlightAware ADS-B
Sun 05:58:47 PM 37.4811 -121.9180 269° West 251 289 6,900 -2,182 Descending FlightAware ADS-B
Sun 05:58:53 PM 37.4814 -121.9260 275° West 252 290 6,700 -1,385 Descending FlightAware ADS-B
Sun 05:59:00 PM 37.4822 -121.9366 278° West 251 289 6,600 -1,333 Descending FlightAware ADS-B (EPLL / LCJ)
Sun 05:59:02 PM 37.4825 -121.9380 278° West 251 289 6,500 -1,500 Descending FlightAware ADS-B
Sun 05:59:08 PM 37.4839 -121.9480 282° West 252 290 6,400 -1,200 Descending FlightAware ADS-B
Sun 05:59:12 PM 37.4852 -121.9540 287° West 252 290 6,300 -2,000 Descending FlightAware ADS-B
Sun 05:59:17 PM 37.4871 -121.9610 290° West 251 289 6,100 -1,333 Descending FlightAware ADS-B
Sun 05:59:21 PM 37.4871 -121.9607 291° West 251 289 6,100 -1,200 Level FlightAware ADS-B (EPLL / LCJ)
Sun 05:59:32 PM 37.4934 -121.9810 292° West 251 289 5,800 -1,579 Descending FlightAware ADS-B
Sun 05:59:40 PM 37.4968 -121.9920 292° West 250 288 5,600 -1,333 Descending FlightAware ADS-B (EPLL / LCJ)
Sun 05:59:50 PM 37.5009 -122.0040 292° West 248 285 5,400 -1,200 Descending FlightAware ADS-B
Sun 06:00:00 PM 37.5053 -122.0187 292° West 243 280 5,200 -1,059 Descending FlightAware ADS-B (EPLL / LCJ)
Sun 06:00:07 PM 37.5083 -122.0280 292° West 240 276 5,100 -1,143 Descending FlightAware ADS-B
Sun 06:00:21 PM 37.5138 -122.0444 293° West 233 268 4,800 -1,200 Descending FlightAware ADS-B (EPLL / LCJ)
Sun 06:00:27 PM 37.5165 -122.0520 293° West 232 267 4,700 -1,143 Descending FlightAware ADS-B
Sun 06:00:42 PM 37.5227 -122.0700 293° West 225 259 4,400 -1,304 Descending FlightAware ADS-B
Sun 06:00:50 PM 37.5261 -122.0810 293° West 220 253 4,200 -1,304 Descending FlightAware ADS-B
Sun 06:01:05 PM 37.5321 -122.0980 293° West 214 246 3,900 -1,161 Descending FlightAware ADS-B
Sun 06:01:21 PM 37.5350 -122.1075 291° West 211 243 3,600 -1,154 Descending FlightAware ADS-B (EPLL / LCJ)
Sun 06:01:31 PM 37.5415 -122.1280 292° West 212 244 3,400 -1,125 Descending FlightAware ADS-B
Sun 06:01:37 PM 37.5435 -122.1350 291° West 204 235 3,300 -1,200 Descending FlightAware ADS-B
Sun 06:01:41 PM 37.5396 -122.1212 291° West 202 232 3,200 -1,125 Descending FlightAware ADS-B (EPLL / LCJ)
Sun 06:01:53 PM 37.5487 -122.1510 291° West 199 229 3,000 -947 Descending FlightAware ADS-B
Sun 06:02:00 PM 37.5494 -122.1532 291° West 197 227 2,900 -1,200 Descending FlightAware ADS-B (EPLL / LCJ)
Sun 06:02:08 PM 37.5536 -122.1670 291° West 193 222 2,700 -1,043 Descending FlightAware ADS-B
Sun 06:02:23 PM 37.5583 -122.1830 291° West 186 214 2,500 -900 Descending FlightAware ADS-B
Sun 06:02:28 PM 37.5594 -122.1864 291° West 183 211 2,400 -1,200 Descending FlightAware ADS-B (EPLL / LCJ)
Sun 06:02:38 PM 37.5630 -122.1980 291° West 181 208 2,200 -900 Descending FlightAware ADS-B
Sun 06:02:48 PM 37.5658 -122.2070 291° West 180 207 2,100 -545 Descending FlightAware ADS-B
Sun 06:03:00 PM 37.5697 -122.2200 291° West 179 206 2,000 -706 Descending FlightAware ADS-B
Sun 06:03:05 PM 37.5708 -122.2240 289° West 180 207 1,900 -923 Descending FlightAware ADS-B
Sun 06:03:13 PM 37.5730 -122.2330 287° West 173 199 1,800 -706 Descending FlightAware ADS-B
Sun 06:03:22 PM 37.5748 -122.2400 284° West 164 189 1,700 -857 Descending FlightAware ADS-B
Sun 06:03:34 PM 37.5770 -122.2520 284° West 156 180 1,500 -900 Descending FlightAware ADS-B
Sun 06:03:42 PM 37.5784 -122.2590 283° West 151 174 1,400 -783 Descending FlightAware ADS-B
Sun 06:03:57 PM 37.5810 -122.2720 285° West 146 168 1,200 -750 Descending FlightAware ADS-B
Sun 06:04:06 PM 37.5827 -122.2790 287° West 144 166 1,100 -706 Descending FlightAware ADS-B
Sun 06:04:14 PM 37.5843 -122.2850 289° West 145 167 1,000 -500 Descending FlightAware ADS-B
Sun 06:04:18 PM 37.5851 -122.2880 291° West 144 166 1,000 -632 Level FlightAware ADS-B
Sun 06:04:33 PM 37.5895 -122.3000 297° West 141 162 800 -706 Descending FlightAware ADS-B
Sun 06:05:09 PM 37.6004 -122.3260 297° West 140 161 400 -706 Descending FlightAware ADS-B
Sun 06:05:24 PM 37.6051 -122.3370 298° West 140 161 200 -800 Descending FlightAware ADS-B
Sun 06:05:43 PM 37.6109 -122.3500 297° West 138 159 -632 Descending FlightAware ADS-B

Login

Don't have an account? Register now (free) for customized features, flight alerts, and more!